Time;durP1;ratioP1;P1;durP2;ratioP2;P2;SDS_P1;SDS_P2;PMS_P1;PMS_P2;Temp;Humidity;BMP_temperature;BMP_pressure;BME280_temperature;BME280_humidity;BME280_pressure;Samples;Min_cycle;Max_cycle;Signal;HPM_P1;HPM_P2
2022/04/27 00:01:24;;;;;;;14.88;8.93;;;;;;;13.07;48.87;99280.19;4763957;30;20066;-79
2022/04/27 00:03:50;;;;;;;13.75;7.82;;;;;;;13.07;48.79;99287.16;4749683;30;20080;-78
2022/04/27 00:06:16;;;;;;;14.52;9.30;;;;;;;12.99;48.66;99274.31;4748085;30;20393;-77
2022/04/27 00:08:42;;;;;;;10.10;5.32;;;;;;;13.07;48.82;99295.00;4753156;30;20745;-77
2022/04/27 00:11:08;;;;;;;11.00;6.47;;;;;;;12.97;48.70;99281.34;4745664;30;20142;-76
2022/04/27 00:13:34;;;;;;;10.48;5.93;;;;;;;13.06;48.78;99291.53;4745885;30;20044;-77
2022/04/27 00:16:00;;;;;;;11.05;6.43;;;;;;;13.07;48.63;99297.63;4748656;30;20471;-77
2022/04/27 00:18:26;;;;;;;10.73;6.85;;;;;;;13.04;48.99;99289.84;4743348;30;20504;-78
2022/04/27 00:20:52;;;;;;;10.55;5.20;;;;;;;12.91;48.67;99284.94;4763324;30;20147;-78
2022/04/27 00:23:18;;;;;;;7.15;4.95;;;;;;;13.00;49.03;99301.28;4746700;30;20039;-76
2022/04/27 00:25:44;;;;;;;9.10;6.20;;;;;;;12.79;49.11;99278.31;4744950;30;20075;-77
2022/04/27 00:28:10;;;;;;;9.77;5.22;;;;;;;12.82;49.26;99282.59;4747404;30;20489;-78
2022/04/27 00:30:37;;;;;;;5.55;3.70;;;;;;;12.90;49.10;99312.00;4749324;30;20063;-78
2022/04/27 00:33:03;;;;;;;4.85;3.17;;;;;;;12.86;48.99;99309.47;4737035;30;20050;-76
2022/04/27 00:35:29;;;;;;;9.35;6.10;;;;;;;12.85;49.12;99311.25;4748518;30;20081;-76
2022/04/27 00:37:55;;;;;;;7.57;3.92;;;;;;;12.84;49.46;99304.31;4775652;29;20066;-76
2022/04/27 00:40:21;;;;;;;6.90;4.32;;;;;;;12.86;49.24;99315.56;4754743;30;20915;-78
2022/04/27 00:42:47;;;;;;;4.70;2.88;;;;;;;12.80;49.42;99302.66;4754797;30;20136;-77
2022/04/27 00:45:13;;;;;;;9.00;3.05;;;;;;;12.76;49.05;99306.25;4762421;30;20078;-77
2022/04/27 00:47:39;;;;;;;8.25;3.50;;;;;;;12.78;48.97;99313.16;4742751;30;20512;-76
2022/04/27 00:50:05;;;;;;;4.95;3.30;;;;;;;12.77;49.33;99316.66;4748038;30;20053;-78
2022/04/27 00:52:32;;;;;;;9.07;2.70;;;;;;;12.65;49.39;99298.69;4743266;30;20048;-76
2022/04/27 00:54:59;;;;;;;5.43;3.83;;;;;;;12.57;49.61;99293.66;4762883;30;20503;-77
2022/04/27 00:57:26;;;;;;;6.05;4.38;;;;;;;12.52;49.63;99292.91;4743835;30;20047;-78
2022/04/27 00:59:53;;;;;;;5.22;1.90;;;;;;;12.68;49.73;99329.09;4760672;30;20078;-77
2022/04/27 01:02:20;;;;;;;5.95;3.50;;;;;;;12.60;50.08;99324.91;4762721;30;20047;-78
2022/04/27 01:04:47;;;;;;;3.53;2.10;;;;;;;12.38;49.82;99310.69;4749340;30;20054;-78
2022/04/27 01:07:13;;;;;;;3.25;2.03;;;;;;;12.46;50.25;99332.25;4749604;30;20049;-76
2022/04/27 01:09:40;;;;;;;4.03;2.20;;;;;;;12.32;50.31;99325.56;4749049;30;20048;-77
2022/04/27 01:12:07;;;;;;;5.13;3.15;;;;;;;12.37;50.47;99329.84;4746629;30;20059;-78
2022/04/27 01:14:49;;;;;;;3.20;2.50;;;;;;;12.40;50.43;99334.97;4746213;30;20043;-77
2022/04/27 01:17:15;;;;;;;2.13;1.60;;;;;;;12.42;50.24;99333.19;4763089;30;20082;-78
2022/04/27 01:19:41;;;;;;;3.15;1.45;;;;;;;12.37;51.03;99332.44;4749469;30;20047;-77
2022/04/27 01:22:08;;;;;;;4.35;2.60;;;;;;;12.31;50.58;99342.13;4721588;30;20069;-76
2022/04/27 01:24:40;;;;;;;4.40;1.60;;;;;;;12.24;50.34;99331.88;4742275;30;20051;-77
2022/04/27 01:27:06;;;;;;;2.90;1.50;;;;;;;12.24;50.90;99350.13;4740989;30;20059;-75
2022/04/27 01:29:35;;;;;;;2.65;1.80;;;;;;;12.18;50.92;99330.28;4764433;30;20047;-77
2022/04/27 01:32:02;;;;;;;4.07;2.13;;;;;;;12.17;50.72;99331.16;4731057;30;20138;-78
2022/04/27 01:34:28;;;;;;;4.05;2.53;;;;;;;12.19;51.31;99345.03;4763086;30;20038;-78
2022/04/27 01:37:59;;;;;;;3.55;1.50;;;;;;;12.15;50.85;99339.00;4763221;30;20052;-79
2022/04/27 01:39:43;;;;;;;3.53;1.90;;;;;;;12.01;51.12;99341.94;4744782;30;20047;-77
2022/04/27 01:42:09;;;;;;;3.03;1.40;;;;;;;11.97;51.38;99326.34;4764632;30;20052;-78
2022/04/27 01:44:35;;;;;;;6.25;2.08;;;;;;;12.03;51.46;99345.34;4748791;30;20056;-78
2022/04/27 01:47:01;;;;;;;2.42;1.73;;;;;;;11.98;51.08;99336.75;4752924;30;20059;-78
2022/04/27 01:49:27;;;;;;;2.72;2.10;;;;;;;12.00;51.51;99348.06;4749620;30;20155;-76
2022/04/27 01:54:37;;;;;;;2.35;1.80;;;;;;;11.96;51.94;99348.97;4748478;30;20132;-78
2022/04/27 01:57:03;;;;;;;3.35;1.80;;;;;;;11.78;51.79;99334.56;4757566;30;20060;-77
2022/04/27 01:59:29;;;;;;;1.60;1.23;;;;;;;11.67;51.62;99318.31;4763214;30;20556;-78
2022/04/27 02:01:57;;;;;;;2.00;1.55;;;;;;;11.78;51.87;99345.00;4765476;30;20105;-78
2022/04/27 02:04:23;;;;;;;2.88;1.40;;;;;;;11.79;52.20;99366.72;4751930;30;20067;-78
2022/04/27 02:06:49;;;;;;;2.92;1.38;;;;;;;11.64;51.84;99340.06;4752119;30;20055;-78
2022/04/27 02:09:17;;;;;;;2.08;1.50;;;;;;;11.61;52.13;99342.72;4761074;30;20051;-78
2022/04/27 02:11:46;;;;;;;3.20;1.48;;;;;;;11.66;52.20;99355.69;4736803;30;20060;-77
2022/04/27 02:14:12;;;;;;;2.58;1.60;;;;;;;11.63;51.89;99356.59;4752985;30;20464;-77
2022/04/27 02:16:40;;;;;;;2.13;1.50;;;;;;;11.61;52.31;99366.19;4769662;29;20115;-78
2022/04/27 02:19:15;;;;;;;2.05;1.40;;;;;;;11.48;52.54;99342.13;4758440;30;20048;-77
2022/04/27 02:21:43;;;;;;;2.47;1.60;;;;;;;11.69;52.41;99379.94;4723833;30;20051;-77
2022/04/27 02:24:11;;;;;;;3.72;1.50;;;;;;;11.66;52.73;99373.94;4753541;30;20803;-78
2022/04/27 02:26:37;;;;;;;2.55;1.30;;;;;;;11.64;52.53;99373.09;4752974;30;20145;-78
2022/04/27 02:29:03;;;;;;;1.90;1.40;;;;;;;11.67;52.36;99367.84;4752915;30;20047;-78
2022/04/27 02:31:30;;;;;;;4.88;1.33;;;;;;;11.63;52.62;99374.00;4752989;30;20483;-77
2022/04/27 02:33:56;;;;;;;1.80;1.20;;;;;;;11.64;52.33;99384.38;4748045;30;20135;-77
2022/04/27 02:36:24;;;;;;;3.80;1.23;;;;;;;11.26;52.62;99339.94;4752599;30;20095;-78
2022/04/27 02:38:51;;;;;;;3.03;1.42;;;;;;;11.53;53.09;99384.59;4748120;30;20088;-77
2022/04/27 02:41:17;;;;;;;2.17;1.65;;;;;;;11.51;52.80;99380.31;4747010;30;20079;-77
2022/04/27 02:43:44;;;;;;;1.90;1.40;;;;;;;11.56;53.21;99387.13;4751247;30;20170;-78
2022/04/27 02:46:14;;;;;;;3.42;1.48;;;;;;;11.51;52.75;99364.66;4770237;30;20064;-77
2022/04/27 02:51:48;;;;;;;1.50;1.33;;;;;;;11.47;52.61;99366.50;4762709;30;20048;-77
2022/04/27 02:51:48;;;;;;;1.52;1.30;;;;;;;11.58;52.72;99405.38;4764015;30;20408;-78
2022/04/27 02:54:17;;;;;;;2.78;1.40;;;;;;;11.50;52.85;99381.19;4727780;30;20417;-77
2022/04/27 02:56:43;;;;;;;5.78;1.55;;;;;;;11.52;52.69;99388.06;4731581;30;20056;-78
2022/04/27 02:59:10;;;;;;;2.40;1.55;;;;;;;11.62;52.78;99400.94;4749291;30;20040;-78
2022/04/27 03:01:36;;;;;;;1.98;1.30;;;;;;;11.54;53.19;99395.88;4759507;30;20051;-78
2022/04/27 03:04:02;;;;;;;2.97;1.38;;;;;;;11.52;52.91;99397.66;4721120;30;20571;-78
2022/04/27 03:06:28;;;;;;;2.53;1.45;;;;;;;11.55;52.74;99400.22;4758425;30;20055;-77
2022/04/27 03:08:54;;;;;;;3.47;1.40;;;;;;;11.54;52.88;99404.53;4746963;30;20074;-78
2022/04/27 03:11:20;;;;;;;1.98;1.58;;;;;;;11.53;53.13;99394.16;4745299;30;20517;-77
2022/04/27 03:14:05;;;;;;;4.18;1.60;;;;;;;11.41;53.18;99383.06;4747234;30;20048;-78
2022/04/27 03:16:31;;;;;;;2.80;1.88;;;;;;;11.42;53.19;99396.97;4746159;30;20068;-78
2022/04/27 03:18:57;;;;;;;2.38;1.60;;;;;;;11.49;53.28;99411.59;4740528;30;20170;-79
2022/04/27 03:21:23;;;;;;;2.85;1.80;;;;;;;11.42;53.24;99408.25;4749844;30;20389;-79
2022/04/27 03:23:49;;;;;;;2.83;1.70;;;;;;;11.33;53.55;99391.91;4760019;30;20189;-77
2022/04/27 03:26:15;;;;;;;4.32;1.70;;;;;;;11.50;54.06;99417.66;4745659;30;20525;-77
2022/04/27 03:28:41;;;;;;;4.57;2.00;;;;;;;11.57;53.66;99424.50;4750149;30;20047;-77
2022/04/27 03:31:07;;;;;;;2.60;1.58;;;;;;;11.48;54.08;99390.78;4757186;30;20059;-78
2022/04/27 03:33:36;;;;;;;4.47;1.88;;;;;;;11.65;53.42;99424.34;4747276;30;20062;-78
2022/04/27 03:36:03;;;;;;;8.30;1.80;;;;;;;11.50;53.94;99428.09;4748793;30;20085;-79
2022/04/27 03:38:29;;;;;;;4.18;1.52;;;;;;;11.53;54.21;99431.47;4762556;30;20417;-79
2022/04/27 03:40:56;;;;;;;2.13;1.65;;;;;;;11.43;53.99;99412.56;4742001;30;20059;-78
2022/04/27 03:43:22;;;;;;;4.97;2.00;;;;;;;11.36;54.18;99397.06;4740268;30;20036;-78
2022/04/27 03:45:49;;;;;;;2.95;1.75;;;;;;;11.44;54.24;99429.91;4756276;30;20052;-76
2022/04/27 03:48:16;;;;;;;3.22;2.10;;;;;;;11.35;54.36;99411.88;4754624;30;20103;-78
2022/04/27 03:50:42;;;;;;;3.92;1.85;;;;;;;11.54;54.27;99435.81;4740999;30;20126;-78
2022/04/27 03:53:08;;;;;;;7.00;1.80;;;;;;;11.29;54.45;99396.34;4770608;30;20067;-77
2022/04/27 03:55:35;;;;;;;2.83;1.80;;;;;;;11.25;54.46;99382.53;4766820;30;20056;-78
2022/04/27 03:58:02;;;;;;;5.35;2.05;;;;;;;11.48;54.22;99429.84;4765705;30;20067;-77
2022/04/27 04:00:29;;;;;;;3.22;1.55;;;;;;;11.55;54.09;99434.09;4775225;30;20052;-77
2022/04/27 04:03:07;;;;;;;6.72;1.27;;;;;;;11.64;54.73;99436.50;4766206;30;20047;-76
2022/04/27 04:05:34;;;;;;;2.20;1.63;;;;;;;11.68;54.41;99440.75;4768364;30;20048;-77
2022/04/27 04:08:00;;;;;;;3.42;1.60;;;;;;;11.73;54.43;99431.13;4771316;30;20063;-76
2022/04/27 04:10:26;;;;;;;3.38;1.80;;;;;;;11.72;54.64;99415.50;4760081;30;20063;-77
2022/04/27 04:12:52;;;;;;;1.77;1.52;;;;;;;11.86;54.22;99439.56;4767351;30;20070;-79
2022/04/27 04:15:32;;;;;;;3.47;1.58;;;;;;;11.87;54.59;99425.63;4748808;30;20059;-76
2022/04/27 04:18:25;;;;;;;3.05;1.85;;;;;;;12.05;54.37;99442.66;4745717;30;20096;-78
2022/04/27 04:21:14;;;;;;;7.55;1.85;;;;;;;12.12;54.44;99437.31;4763259;30;20142;-78
2022/04/27 04:23:48;;;;;;;3.78;1.60;;;;;;;12.19;54.23;99434.56;4762250;30;20047;-79
2022/04/27 04:29:00;;;;;;;5.75;2.03;;;;;;;12.45;53.65;99451.41;4746476;30;20194;-78
2022/04/27 04:31:29;;;;;;;4.60;1.83;;;;;;;12.44;53.79;99441.84;4746614;30;20142;-77
2022/04/27 04:34:14;;;;;;;3.13;1.85;;;;;;;12.47;53.05;99431.34;4748574;30;20056;-79
2022/04/27 04:36:41;;;;;;;3.60;2.03;;;;;;;12.70;53.35;99444.75;4747091;30;20055;-77
2022/04/27 04:39:07;;;;;;;5.03;1.90;;;;;;;12.61;52.94;99425.81;4748125;30;20078;-77
2022/04/27 04:41:37;;;;;;;4.93;2.20;;;;;;;12.64;52.84;99441.41;4749476;30;20059;-77
2022/04/27 04:44:04;;;;;;;6.93;2.28;;;;;;;12.49;52.96;99431.31;4748689;30;20060;-77
2022/04/27 04:46:45;;;;;;;6.03;2.10;;;;;;;12.56;53.09;99453.75;4742962;30;20451;-80
2022/04/27 04:49:46;;;;;;;;;;;;;;;12.61;52.76;99449.31;4728921;30;20587;-78
2022/04/27 04:52:34;;;;;;;4.95;1.92;;;;;;;12.67;53.05;99458.75;4733932;30;19922;-78
2022/04/27 04:55:21;;;;;;;2.65;2.13;;;;;;;12.78;52.95;99454.16;4744630;30;20052;-79
2022/04/27 04:58:10;;;;;;;3.17;2.08;;;;;;;12.77;52.87;99435.88;4731476;30;20051;-78
2022/04/27 05:00:48;;;;;;;5.55;2.30;;;;;;;12.93;52.76;99452.91;4758446;30;20051;-78
2022/04/27 05:03:36;;;;;;;5.32;2.38;;;;;;;13.02;52.59;99450.97;4748866;30;20056;-80
2022/04/27 05:06:11;;;;;;;4.32;2.10;;;;;;;13.00;52.24;99437.09;4747338;30;20059;-78
2022/04/27 05:08:46;;;;;;;5.03;2.58;;;;;;;13.13;51.90;99453.31;4743535;30;20092;-79
2022/04/27 05:11:30;;;;;;;4.00;2.22;;;;;;;13.22;51.90;99443.50;4743825;30;20505;-80
2022/04/27 05:14:19;;;;;;;5.03;2.58;;;;;;;13.73;51.46;99443.94;4742369;30;20060;-77
2022/04/27 05:17:04;;;;;;;5.85;2.28;;;;;;;14.52;50.51;99446.03;4740915;30;20052;-80
2022/04/27 05:19:49;;;;;;;11.15;2.50;;;;;;;15.45;49.86;99456.16;4740498;30;20529;-78
2022/04/27 05:22:38;;;;;;;4.70;2.30;;;;;;;16.94;48.91;99450.66;4743347;30;20083;-79
2022/04/27 05:25:22;;;;;;;3.35;2.20;;;;;;;19.49;45.83;99429.44;4760443;30;20102;-79
2022/04/27 05:28:04;;;;;;;4.75;2.22;;;;;;;21.90;41.85;99409.75;4728885;30;20478;-78
2022/04/27 05:33:44;;;;;;;3.38;2.00;;;;;;;25.51;35.60;99402.59;4764870;30;20541;-79
2022/04/27 05:36:32;;;;;;;7.13;2.00;;;;;;;26.83;32.87;99409.97;4737579;30;20052;-78
2022/04/27 05:39:07;;;;;;;7.18;2.20;;;;;;;27.19;31.27;99411.38;4745228;30;20048;-78
2022/04/27 05:42:06;;;;;;;7.50;2.28;;;;;;;27.27;30.47;99408.03;4714891;30;20588;-78
2022/04/27 05:44:51;;;;;;;1.95;1.20;;;;;;;27.61;29.28;99413.22;4744626;30;20060;-78
2022/04/27 05:47:42;;;;;;;1.33;1.23;;;;;;;27.62;27.95;99414.91;4761630;30;20063;-77
2022/04/27 05:50:37;;;;;;;15.88;10.00;;;;;;;27.73;27.36;99395.25;4753787;30;20059;-78
2022/04/27 05:53:26;;;;;;;4.18;2.67;;;;;;;28.48;26.00;99419.00;4748996;30;20052;-79
2022/04/27 05:56:09;;;;;;;8.35;5.75;;;;;;;29.41;24.92;99415.91;4729995;30;20055;-79
2022/04/27 05:58:56;;;;;;;5.35;4.00;;;;;;;30.15;24.41;99412.53;4741415;30;20054;-77
2022/04/27 06:01:38;;;;;;;11.82;7.15;;;;;;;31.06;22.53;99429.56;4733703;30;20043;-77
2022/04/27 06:04:08;;;;;;;6.00;4.30;;;;;;;31.81;22.16;99414.81;4763524;30;20048;-78
2022/04/27 06:06:45;;;;;;;4.32;2.88;;;;;;;32.18;21.54;99415.47;4743428;30;20601;-77
2022/04/27 06:09:13;;;;;;;7.63;4.32;;;;;;;32.57;21.12;99417.59;4746798;30;20136;-79
2022/04/27 06:11:49;;;;;;;6.60;3.10;;;;;;;32.87;19.97;99416.16;4749480;30;20067;-78
2022/04/27 06:14:41;;;;;;;7.60;3.45;;;;;;;33.75;19.27;99426.31;4740552;30;20150;-79
2022/04/27 06:17:17;;;;;;;3.90;2.35;;;;;;;34.31;18.50;99447.03;4745482;30;20104;-78
2022/04/27 06:19:44;;;;;;;3.47;1.92;;;;;;;34.34;18.12;99422.38;4749497;30;20059;-78
2022/04/27 06:22:13;;;;;;;6.68;3.10;;;;;;;34.58;18.01;99428.66;4761468;30;20051;-79
2022/04/27 06:24:40;;;;;;;4.57;2.67;;;;;;;36.01;17.37;99446.00;4763826;30;20547;-81
2022/04/27 06:28:22;;;;;;;6.50;3.20;;;;;;;37.11;16.03;99445.09;4749310;30;20052;-79
2022/04/27 06:32:54;;;;;;;3.33;1.92;;;;;;;37.49;15.57;99411.41;4752773;30;20093;-78
2022/04/27 06:35:54;;;;;;;13.55;9.07;;;;;;;36.28;16.30;99343.44;4724828;30;20119;-78
2022/04/27 06:39:04;;;;;;;6.07;5.10;;;;;;;36.09;15.30;99354.88;4702252;30;20057;-79
2022/04/27 06:41:31;;;;;;;4.85;2.42;;;;;;;36.68;15.79;99445.09;4672243;30;20052;-78
2022/04/27 06:47:48;;;;;;;5.80;2.33;;;;;;;37.31;15.01;99447.97;4752530;30;20055;-78
2022/04/27 06:50:35;;;;;;;2.25;1.73;;;;;;;37.47;14.50;99399.91;4753439;30;20059;-79
2022/04/27 06:53:41;;;;;;;8.60;3.50;;;;;;;38.12;14.29;99429.50;4764464;30;20040;-78
2022/04/27 06:56:29;;;;;;;10.13;5.53;;;;;;;37.44;14.37;99436.41;4747855;30;20060;-78
2022/04/27 06:59:13;;;;;;;8.93;3.83;;;;;;;36.66;14.40;99447.16;4767365;30;20135;-79
2022/04/27 07:01:50;;;;;;;10.30;4.68;;;;;;;35.38;14.75;99443.59;4749251;30;20123;-77
2022/04/27 07:04:19;;;;;;;8.40;4.00;;;;;;;34.91;14.69;99433.84;4750521;30;20523;-81
2022/04/27 07:06:46;;;;;;;7.00;3.25;;;;;;;34.29;14.97;99398.63;4753643;30;20524;-81
2022/04/27 07:09:12;;;;;;;3.85;1.85;;;;;;;35.04;14.85;99444.06;4751436;30;20058;-79
2022/04/27 07:11:49;;;;;;;4.82;1.58;;;;;;;36.05;14.14;99445.63;4764482;30;20050;-80
2022/04/27 07:14:17;;;;;;;4.82;2.53;;;;;;;37.82;13.84;99449.59;4751118;30;20054;-79
2022/04/27 07:19:33;;;;;;;8.40;1.92;;;;;;;39.15;12.10;99419.47;4748835;30;20414;-82
2022/04/27 07:21:59;;;;;;;1.63;1.20;;;;;;;39.87;11.63;99424.16;4739906;30;20575;-80
2022/04/27 07:24:37;;;;;;;2.83;1.70;;;;;;;40.93;10.81;99410.16;4767226;30;20075;-81
2022/04/27 07:27:07;;;;;;;1.63;1.43;;;;;;;41.13;10.68;99333.63;4751001;30;20051;-81
2022/04/27 07:29:45;;;;;;;1.88;1.25;;;;;;;41.18;10.18;99409.31;4741149;30;20329;-81
2022/04/27 07:32:11;;;;;;;1.73;1.27;;;;;;;41.56;10.09;99424.72;4749255;30;20047;-80
2022/04/27 07:34:56;;;;;;;4.50;1.50;;;;;;;41.58;9.23;99384.38;4753172;30;20044;-82
2022/04/27 07:37:47;;;;;;;3.80;1.70;;;;;;;42.00;9.16;99405.50;4738814;30;20051;-79
2022/04/27 07:40:17;;;;;;;6.10;2.47;;;;;;;42.85;9.20;99375.50;4757750;30;20521;-78
2022/04/27 07:42:51;;;;;;;3.53;2.05;;;;;;;43.67;8.94;99394.88;4754224;30;20555;-80
2022/04/27 07:45:17;;;;;;;7.63;3.08;;;;;;;44.77;8.54;99430.41;4753675;30;20052;-79
2022/04/27 07:47:46;;;;;;;3.95;2.15;;;;;;;45.50;8.02;99429.59;4773333;30;20504;-79
2022/04/27 07:50:14;;;;;;;5.72;1.90;;;;;;;44.84;8.14;99422.00;4773512;30;20047;-81
2022/04/27 07:52:44;;;;;;;2.17;1.90;;;;;;;44.85;8.18;99434.66;4757966;30;20078;-82
2022/04/27 07:55:16;;;;;;;6.15;2.35;;;;;;;43.93;8.44;99409.91;4760547;30;20040;-81
2022/04/27 07:57:42;;;;;;;4.63;2.00;;;;;;;42.87;8.88;99412.50;4741399;30;20083;-81
2022/04/27 08:00:15;;;;;;;3.55;2.20;;;;;;;42.10;8.81;99350.34;4743888;30;20073;-83
2022/04/27 08:02:53;;;;;;;4.63;2.42;;;;;;;41.53;8.98;99425.16;4736636;30;20327;-79
2022/04/27 08:05:30;;;;;;;7.93;2.67;;;;;;;39.77;9.81;99446.38;4769184;30;20083;-77
2022/04/27 08:07:59;;;;;;;6.95;2.22;;;;;;;36.99;10.77;99400.56;4742537;30;20147;-79
2022/04/27 08:10:28;;;;;;;9.35;2.50;;;;;;;34.95;12.22;99387.38;4742336;30;20036;-79
2022/04/27 08:12:59;;;;;;;6.10;2.60;;;;;;;34.58;12.29;99447.56;4757304;30;20043;-78
2022/04/27 08:15:33;;;;;;;5.10;2.22;;;;;;;33.70;13.04;99450.28;4756533;30;20126;-78
2022/04/27 08:18:06;;;;;;;6.78;2.08;;;;;;;32.53;13.27;99427.88;4787415;29;20673;-79
2022/04/27 08:23:34;;;;;;;3.30;1.70;;;;;;;30.91;14.36;99397.91;4770234;30;20101;-78
2022/04/27 08:26:05;;;;;;;5.43;1.80;;;;;;;29.59;14.48;99302.59;4768208;30;20048;-78
2022/04/27 08:28:31;;;;;;;5.10;1.90;;;;;;;29.17;15.28;99389.56;4753391;30;20158;-78
2022/04/27 08:30:59;;;;;;;6.53;2.08;;;;;;;28.81;16.01;99453.56;4741447;30;20130;-77
2022/04/27 08:33:25;;;;;;;3.47;1.95;;;;;;;28.07;16.48;99431.53;4753673;30;20051;-77
2022/04/27 08:35:55;;;;;;;4.93;1.73;;;;;;;27.03;17.39;99410.97;4755432;30;20122;-79
2022/04/27 08:38:21;;;;;;;4.05;1.75;;;;;;;26.75;17.41;99448.81;4774480;30;20488;-78
2022/04/27 08:40:47;;;;;;;3.63;2.00;;;;;;;26.05;17.88;99442.84;4772442;30;20042;-77
2022/04/27 08:43:14;;;;;;;7.18;2.30;;;;;;;25.51;18.46;99441.72;4754816;30;20059;-78
2022/04/27 08:45:42;;;;;;;10.02;2.47;;;;;;;25.02;18.94;99457.75;4760039;30;20023;-77
2022/04/27 08:48:22;;;;;;;2.63;2.00;;;;;;;24.59;19.33;99461.75;4787210;30;20065;-78
2022/04/27 08:51:00;;;;;;;4.60;2.55;;;;;;;24.48;19.53;99462.53;4740647;30;20056;-76
2022/04/27 08:53:27;;;;;;;6.43;2.35;;;;;;;24.52;19.82;99439.22;4754450;30;20048;-81
2022/04/27 08:55:55;;;;;;;7.30;2.10;;;;;;;24.57;19.61;99468.13;4772749;30;20581;-81
2022/04/27 08:58:23;;;;;;;3.92;1.98;;;;;;;24.53;20.19;99419.66;4756840;30;20100;-81
2022/04/27 09:00:49;;;;;;;3.30;1.70;;;;;;;24.69;19.87;99445.13;4749439;30;20047;-81
2022/04/27 09:03:27;;;;;;;6.30;2.60;;;;;;;24.57;20.05;99463.69;4770002;30;20055;-80
2022/04/27 09:06:03;;;;;;;3.97;1.90;;;;;;;24.32;20.31;99449.50;4755295;30;20052;-82
2022/04/27 09:08:38;;;;;;;4.05;2.35;;;;;;;24.19;20.12;99462.81;4770980;30;20107;-82
2022/04/27 09:11:25;;;;;;;6.13;2.40;;;;;;;23.85;20.50;99472.28;4755871;30;20075;-81
2022/04/27 09:13:55;;;;;;;8.30;2.33;;;;;;;23.00;20.77;99410.69;4752797;30;20078;-81
2022/04/27 09:16:23;;;;;;;3.72;2.15;;;;;;;22.93;21.38;99466.91;4763307;30;20512;-80
2022/04/27 09:22:18;;;;;;;8.88;7.15;;;;;;;22.27;22.20;99465.72;4757075;30;20070;-80
2022/04/27 09:24:51;;;;;;;14.98;10.18;;;;;;;21.92;22.24;99459.97;4723546;30;20088;-80
2022/04/27 09:27:21;;;;;;;25.38;13.40;;;;;;;21.84;23.13;99475.50;4755529;30;20146;-81
2022/04/27 09:29:58;;;;;;;11.40;6.97;;;;;;;21.51;23.36;99477.41;4754264;30;20124;-82
2022/04/27 09:33:34;;;;;;;;;;;;;;;;;;;;;
2022/04/27 09:36:23;;;;;;;11.52;6.97;;;;;;;20.46;24.17;99426.91;4756535;30;20519;-82
2022/04/27 09:38:51;;;;;;;8.57;3.15;;;;;;;20.31;24.67;99480.59;4746759;30;20370;-81
2022/04/27 09:41:53;;;;;;;9.73;5.18;;;;;;;19.96;25.21;99497.41;4738044;30;20052;-80
2022/04/27 09:44:28;;;;;;;8.35;5.60;;;;;;;19.61;25.63;99494.78;4730347;30;20060;-80
2022/04/27 09:46:54;;;;;;;19.35;11.43;;;;;;;19.24;25.83;99484.31;4735957;30;20044;-79
2022/04/27 09:49:55;;;;;;;16.17;4.85;;;;;;;17.94;26.82;99337.66;4762833;30;20120;-82
2022/04/27 09:52:23;;;;;;;21.25;12.70;;;;;;;18.04;27.23;99409.19;4755840;30;20447;-82
2022/04/27 09:54:50;;;;;;;33.53;20.17;;;;;;;18.00;27.43;99418.97;4737771;30;20040;-83
2022/04/27 09:57:19;;;;;;;11.15;7.10;;;;;;;18.13;27.82;99485.09;4754864;30;20044;-82
2022/04/27 09:59:47;;;;;;;9.30;6.22;;;;;;;18.06;28.39;99526.63;4737597;30;20421;-83
2022/04/27 10:02:27;;;;;;;9.13;3.22;;;;;;;17.26;28.94;99448.50;4758444;30;20060;-80
2022/04/27 10:04:56;;;;;;;8.60;4.07;;;;;;;17.27;29.38;99516.78;4755045;30;20055;-84
2022/04/27 10:07:27;;;;;;;8.45;2.58;;;;;;;16.32;30.08;99383.06;4754285;30;20524;-83
2022/04/27 10:09:54;;;;;;;6.75;2.47;;;;;;;16.97;30.32;99518.88;4755708;30;20201;-81
2022/04/27 10:12:20;;;;;;;7.05;2.42;;;;;;;16.68;30.38;99490.19;4740663;30;20074;-81
2022/04/27 10:14:46;;;;;;;9.85;2.75;;;;;;;16.79;30.88;99539.69;4752756;30;20071;-79
2022/04/27 10:17:13;;;;;;;10.15;2.20;;;;;;;16.70;30.85;99542.66;4766957;29;20097;-82
2022/04/27 10:19:50;;;;;;;6.10;2.25;;;;;;;16.64;31.50;99549.00;4774318;30;20043;-81
2022/04/27 10:22:26;;;;;;;4.43;2.25;;;;;;;16.53;31.77;99554.66;4763059;30;20054;-80
2022/04/27 10:24:55;;;;;;;11.10;2.33;;;;;;;16.39;31.91;99554.34;4775168;30;20489;-80
2022/04/27 10:27:24;;;;;;;4.25;2.22;;;;;;;16.04;32.13;99499.59;4769339;30;20055;-82
2022/04/27 10:29:59;;;;;;;10.73;2.90;;;;;;;15.66;32.27;99449.31;4780369;30;20050;-80
2022/04/27 10:32:42;;;;;;;4.78;2.55;;;;;;;16.30;32.38;99559.91;4762973;30;20051;-82
2022/04/27 10:35:11;;;;;;;5.30;2.70;;;;;;;16.47;31.94;99577.69;4760390;30;20470;-83
2022/04/27 10:37:48;;;;;;;5.47;2.20;;;;;;;16.34;31.92;99582.53;4776378;30;20050;-80
2022/04/27 10:40:35;;;;;;;5.03;2.15;;;;;;;16.29;32.43;99568.69;4745430;30;20472;-80
2022/04/27 10:43:12;;;;;;;6.80;2.88;;;;;;;16.17;32.26;99539.38;4771128;30;20086;-81
2022/04/27 10:45:45;;;;;;;11.52;2.78;;;;;;;16.01;32.58;99517.19;4748236;30;20051;-80
2022/04/27 10:48:20;;;;;;;3.10;2.50;;;;;;;15.82;32.86;99483.72;4769815;30;20047;-81
2022/04/27 10:51:07;;;;;;;3.88;2.72;;;;;;;15.96;32.59;99526.09;4764064;30;20138;-84
2022/04/27 10:53:41;;;;;;;5.88;2.97;;;;;;;15.00;33.09;99379.06;4756623;30;20067;-81
2022/04/27 10:56:44;;;;;;;5.28;2.95;;;;;;;15.00;33.28;99377.28;4750880;30;20211;-81
2022/04/27 10:59:54;;;;;;;5.18;3.50;;;;;;;15.07;33.42;99412.00;4733684;30;20134;-81
2022/04/27 11:02:35;;;;;;;7.13;3.60;;;;;;;16.20;33.49;99586.50;4750274;30;20292;-81
2022/04/27 11:05:04;;;;;;;5.18;3.38;;;;;;;16.08;33.80;99563.31;4757854;30;20059;-82
2022/04/27 11:07:49;;;;;;;10.43;3.35;;;;;;;16.06;33.58;99547.63;4765627;30;20039;-83
2022/04/27 11:10:20;;;;;;;4.90;2.65;;;;;;;15.66;33.68;99492.13;4763179;30;20078;-83
2022/04/27 11:12:55;;;;;;;6.43;2.60;;;;;;;15.21;33.47;99416.78;4751021;30;20048;-82
2022/04/27 11:15:29;;;;;;;4.25;2.47;;;;;;;15.86;33.69;99536.97;4763392;30;20108;-82
2022/04/27 11:18:02;;;;;;;5.85;2.85;;;;;;;16.48;33.79;99616.16;4766000;30;20085;-83
2022/04/27 11:20:33;;;;;;;7.00;2.77;;;;;;;16.35;34.04;99563.25;4787406;29;20044;-82
2022/04/27 11:23:03;;;;;;;8.00;2.85;;;;;;;15.70;34.02;99443.03;4759680;30;20303;-83
2022/04/27 11:25:38;;;;;;;10.88;3.45;;;;;;;16.45;34.18;99525.19;4760705;30;20182;-83
2022/04/27 11:28:08;;;;;;;5.38;2.67;;;;;;;16.63;34.22;99556.97;4711033;30;20442;-84
2022/04/27 11:31:02;;;;;;;9.95;3.75;;;;;;;16.55;34.28;99539.72;4750335;30;20055;-84
2022/04/27 11:33:30;;;;;;;7.40;3.33;;;;;;;16.26;33.88;99546.91;4752652;30;20047;-80
2022/04/27 11:35:56;;;;;;;11.75;7.07;;;;;;;15.97;34.43;99542.69;4742730;30;20072;-81
2022/04/27 11:38:33;;;;;;;81.03;51.47;;;;;;;16.15;34.54;99577.94;4759466;30;20067;-79
2022/04/27 11:41:01;;;;;;;11.88;6.63;;;;;;;16.37;34.68;99596.38;4747600;30;20197;-79
2022/04/27 11:43:32;;;;;;;5.38;3.38;;;;;;;16.46;34.44;99592.56;4747990;30;20354;-80
2022/04/27 11:45:59;;;;;;;9.50;4.07;;;;;;;16.42;34.32;99591.00;4750223;30;20097;-78
2022/04/27 11:48:29;;;;;;;54.45;31.27;;;;;;;16.59;34.32;99615.78;4747319;30;20074;-81
2022/04/27 11:51:00;;;;;;;19.98;9.93;;;;;;;16.58;34.23;99606.19;4748094;30;20052;-80
2022/04/27 11:53:26;;;;;;;6.20;3.80;;;;;;;16.55;34.71;99613.25;4746422;30;20142;-80
2022/04/27 11:55:52;;;;;;;10.50;5.55;;;;;;;16.55;34.56;99621.13;4752419;30;20444;-80
2022/04/27 11:58:26;;;;;;;9.00;4.20;;;;;;;16.31;34.48;99628.13;4760311;30;20389;-78
2022/04/27 12:00:57;;;;;;;12.15;3.60;;;;;;;16.10;34.66;99641.09;4760198;30;20449;-79
2022/04/27 12:03:24;;;;;;;5.93;2.23;;;;;;;15.36;35.71;99640.84;4762288;29;20040;-80
2022/04/27 12:05:52;;;;;;;11.57;2.00;;;;;;;14.73;37.56;99647.03;4752682;30;20294;-77
2022/04/27 12:08:20;;;;;;;9.23;5.13;;;;;;;14.26;39.10;99649.16;4749220;30;20560;-80
2022/04/27 12:10:46;;;;;;;12.10;7.22;;;;;;;14.07;40.09;99667.13;4726434;30;20058;-78
2022/04/27 12:13:14;;;;;;;6.90;2.83;;;;;;;13.83;40.50;99669.44;4747988;30;20445;-80
2022/04/27 12:15:43;;;;;;;3.03;1.88;;;;;;;13.51;41.34;99686.75;4747542;30;20528;-80
2022/04/27 12:18:25;;;;;;;4.47;2.55;;;;;;;13.13;42.13;99678.81;4755150;30;20661;-80
2022/04/27 12:20:55;;;;;;;17.27;11.18;;;;;;;12.80;43.41;99686.47;4745713;30;20048;-79
2022/04/27 12:23:26;;;;;;;8.73;5.05;;;;;;;12.79;44.45;99692.59;4753669;30;20040;-78
2022/04/27 12:26:01;;;;;;;2.10;1.25;;;;;;;12.57;44.32;99685.16;4746966;30;20058;-77